sensor_id;sensor_type;location;lat;lon;timestamp;temperature;humidity
28524;DHT22;15734;50.904;6.922;2023-12-07T00:00:29;0.80;99.90
28524;DHT22;15734;50.904;6.922;2023-12-07T00:02:54;0.70;99.90
28524;DHT22;15734;50.904;6.922;2023-12-07T00:05:20;0.80;99.90
28524;DHT22;15734;50.904;6.922;2023-12-07T00:07:45;0.70;99.90
28524;DHT22;15734;50.904;6.922;2023-12-07T00:10:11;0.70;99.90
28524;DHT22;15734;50.904;6.922;2023-12-07T00:12:36;0.70;99.90
28524;DHT22;15734;50.904;6.922;2023-12-07T00:15:02;0.70;99.90
28524;DHT22;15734;50.904;6.922;2023-12-07T00:17:28;0.60;99.90
28524;DHT22;15734;50.904;6.922;2023-12-07T00:19:53;0.60;99.90
28524;DHT22;15734;50.904;6.922;2023-12-07T00:22:20;0.50;99.90
28524;DHT22;15734;50.904;6.922;2023-12-07T00:24:46;0.50;99.90
28524;DHT22;15734;50.904;6.922;2023-12-07T00:27:12;0.40;99.90
28524;DHT22;15734;50.904;6.922;2023-12-07T00:29:37;0.40;99.90
28524;DHT22;15734;50.904;6.922;2023-12-07T00:32:04;0.40;99.90
28524;DHT22;15734;50.904;6.922;2023-12-07T00:34:30;0.50;99.90
28524;DHT22;15734;50.904;6.922;2023-12-07T00:36:55;0.50;99.90
28524;DHT22;15734;50.904;6.922;2023-12-07T00:39:21;0.50;99.90
28524;DHT22;15734;50.904;6.922;2023-12-07T00:41:46;0.50;99.90
28524;DHT22;15734;50.904;6.922;2023-12-07T00:44:15;0.50;99.90
28524;DHT22;15734;50.904;6.922;2023-12-07T00:46:41;0.40;99.90
28524;DHT22;15734;50.904;6.922;2023-12-07T00:49:06;0.40;99.90
28524;DHT22;15734;50.904;6.922;2023-12-07T00:51:32;0.40;99.90
28524;DHT22;15734;50.904;6.922;2023-12-07T00:53:57;0.40;99.90
28524;DHT22;15734;50.904;6.922;2023-12-07T00:56:24;0.40;99.90
28524;DHT22;15734;50.904;6.922;2023-12-07T00:58:49;0.50;99.90
28524;DHT22;15734;50.904;6.922;2023-12-07T01:01:15;0.50;99.90
28524;DHT22;15734;50.904;6.922;2023-12-07T01:03:40;0.50;99.90
28524;DHT22;15734;50.904;6.922;2023-12-07T01:06:07;0.60;99.90
28524;DHT22;15734;50.904;6.922;2023-12-07T01:08:32;0.60;99.90
28524;DHT22;15734;50.904;6.922;2023-12-07T01:10:58;0.60;99.90
28524;DHT22;15734;50.904;6.922;2023-12-07T01:13:23;0.60;99.90
28524;DHT22;15734;50.904;6.922;2023-12-07T01:15:50;0.60;99.90
28524;DHT22;15734;50.904;6.922;2023-12-07T01:18:15;0.60;99.90
28524;DHT22;15734;50.904;6.922;2023-12-07T01:20:41;0.60;99.90
28524;DHT22;15734;50.904;6.922;2023-12-07T01:23:07;0.50;99.90
28524;DHT22;15734;50.904;6.922;2023-12-07T01:25:34;0.50;99.90
28524;DHT22;15734;50.904;6.922;2023-12-07T01:27:59;0.40;99.90
28524;DHT22;15734;50.904;6.922;2023-12-07T01:30:25;0.40;99.90
28524;DHT22;15734;50.904;6.922;2023-12-07T01:32:51;0.50;99.90
28524;DHT22;15734;50.904;6.922;2023-12-07T01:35:16;0.50;99.90
28524;DHT22;15734;50.904;6.922;2023-12-07T01:37:42;0.40;99.90
28524;DHT22;15734;50.904;6.922;2023-12-07T01:40:08;0.40;99.90
28524;DHT22;15734;50.904;6.922;2023-12-07T01:42:39;0.40;99.90
28524;DHT22;15734;50.904;6.922;2023-12-07T01:45:05;0.40;99.90
28524;DHT22;15734;50.904;6.922;2023-12-07T01:47:31;0.30;99.90
28524;DHT22;15734;50.904;6.922;2023-12-07T01:49:59;0.30;99.90
28524;DHT22;15734;50.904;6.922;2023-12-07T01:52:27;0.30;99.90
28524;DHT22;15734;50.904;6.922;2023-12-07T01:54:54;0.30;99.90
28524;DHT22;15734;50.904;6.922;2023-12-07T01:57:20;0.20;99.90
28524;DHT22;15734;50.904;6.922;2023-12-07T01:59:46;0.10;99.90
28524;DHT22;15734;50.904;6.922;2023-12-07T02:02:12;0.30;99.90
28524;DHT22;15734;50.904;6.922;2023-12-07T02:04:38;0.40;99.90
28524;DHT22;15734;50.904;6.922;2023-12-07T02:07:04;0.40;99.90
28524;DHT22;15734;50.904;6.922;2023-12-07T02:09:30;0.40;99.90
28524;DHT22;15734;50.904;6.922;2023-12-07T02:11:55;0.40;99.90
28524;DHT22;15734;50.904;6.922;2023-12-07T02:14:21;0.40;99.90
28524;DHT22;15734;50.904;6.922;2023-12-07T02:20:20;0.30;99.90
28524;DHT22;15734;50.904;6.922;2023-12-07T02:22:53;0.20;99.90
28524;DHT22;15734;50.904;6.922;2023-12-07T02:25:24;0.20;99.90
28524;DHT22;15734;50.904;6.922;2023-12-07T02:27:51;0.10;99.90
28524;DHT22;15734;50.904;6.922;2023-12-07T02:30:17;0.20;99.90
28524;DHT22;15734;50.904;6.922;2023-12-07T02:32:44;0.10;99.90
28524;DHT22;15734;50.904;6.922;2023-12-07T02:35:11;0.20;99.90
28524;DHT22;15734;50.904;6.922;2023-12-07T02:38:05;0.20;99.90
28524;DHT22;15734;50.904;6.922;2023-12-07T02:40:31;0.30;99.90
28524;DHT22;15734;50.904;6.922;2023-12-07T02:42:58;0.20;99.90
28524;DHT22;15734;50.904;6.922;2023-12-07T02:45:24;0.20;99.90
28524;DHT22;15734;50.904;6.922;2023-12-07T02:47:51;0.30;99.90
28524;DHT22;15734;50.904;6.922;2023-12-07T02:50:16;0.20;99.90
28524;DHT22;15734;50.904;6.922;2023-12-07T02:52:42;0.20;99.90
28524;DHT22;15734;50.904;6.922;2023-12-07T02:55:08;0.10;99.90
28524;DHT22;15734;50.904;6.922;2023-12-07T02:57:34;0.10;99.90
28524;DHT22;15734;50.904;6.922;2023-12-07T03:00:00;0.20;99.90
28524;DHT22;15734;50.904;6.922;2023-12-07T03:02:26;0.20;99.90
28524;DHT22;15734;50.904;6.922;2023-12-07T03:04:52;0.20;99.90
28524;DHT22;15734;50.904;6.922;2023-12-07T03:07:17;0.30;99.90
28524;DHT22;15734;50.904;6.922;2023-12-07T03:09:43;0.20;99.90
28524;DHT22;15734;50.904;6.922;2023-12-07T03:12:08;0.10;99.90
28524;DHT22;15734;50.904;6.922;2023-12-07T03:14:34;0.10;99.90
28524;DHT22;15734;50.904;6.922;2023-12-07T03:16:59;0.00;99.90
28524;DHT22;15734;50.904;6.922;2023-12-07T03:19:25;0.10;99.90
28524;DHT22;15734;50.904;6.922;2023-12-07T03:21:51;0.20;99.90
28524;DHT22;15734;50.904;6.922;2023-12-07T03:24:16;0.20;99.90
28524;DHT22;15734;50.904;6.922;2023-12-07T03:26:42;0.20;99.90
28524;DHT22;15734;50.904;6.922;2023-12-07T03:29:07;0.20;99.90
28524;DHT22;15734;50.904;6.922;2023-12-07T03:31:33;0.20;99.90
28524;DHT22;15734;50.904;6.922;2023-12-07T03:33:58;0.20;99.90
28524;DHT22;15734;50.904;6.922;2023-12-07T03:36:26;0.20;99.90
28524;DHT22;15734;50.904;6.922;2023-12-07T03:38:52;0.30;99.90
28524;DHT22;15734;50.904;6.922;2023-12-07T03:41:17;0.30;99.90
28524;DHT22;15734;50.904;6.922;2023-12-07T03:43:43;0.30;99.90
28524;DHT22;15734;50.904;6.922;2023-12-07T03:46:08;0.50;99.90
28524;DHT22;15734;50.904;6.922;2023-12-07T03:48:34;0.60;99.90
28524;DHT22;15734;50.904;6.922;2023-12-07T03:51:00;0.60;99.90
28524;DHT22;15734;50.904;6.922;2023-12-07T03:53:27;0.70;99.90
28524;DHT22;15734;50.904;6.922;2023-12-07T03:55:52;0.70;99.90
28524;DHT22;15734;50.904;6.922;2023-12-07T03:58:18;0.70;99.90
28524;DHT22;15734;50.904;6.922;2023-12-07T04:00:44;0.80;99.90
28524;DHT22;15734;50.904;6.922;2023-12-07T04:03:10;0.80;99.90
28524;DHT22;15734;50.904;6.922;2023-12-07T04:05:36;0.80;99.90
28524;DHT22;15734;50.904;6.922;2023-12-07T04:08:02;0.80;99.90
28524;DHT22;15734;50.904;6.922;2023-12-07T04:10:29;0.70;99.90
28524;DHT22;15734;50.904;6.922;2023-12-07T04:12:54;0.70;99.90
28524;DHT22;15734;50.904;6.922;2023-12-07T04:15:20;0.70;99.90
28524;DHT22;15734;50.904;6.922;2023-12-07T04:17:46;0.70;99.90
28524;DHT22;15734;50.904;6.922;2023-12-07T04:20:12;0.80;99.90
28524;DHT22;15734;50.904;6.922;2023-12-07T04:22:38;0.80;99.90
28524;DHT22;15734;50.904;6.922;2023-12-07T04:25:05;0.90;99.90
28524;DHT22;15734;50.904;6.922;2023-12-07T04:27:31;0.90;99.90
28524;DHT22;15734;50.904;6.922;2023-12-07T04:29:57;0.90;99.90
28524;DHT22;15734;50.904;6.922;2023-12-07T04:32:23;0.90;99.90
28524;DHT22;15734;50.904;6.922;2023-12-07T04:34:48;0.80;99.90
28524;DHT22;15734;50.904;6.922;2023-12-07T04:37:14;0.70;99.90
28524;DHT22;15734;50.904;6.922;2023-12-07T04:39:39;0.70;99.90
28524;DHT22;15734;50.904;6.922;2023-12-07T04:42:05;0.80;99.90
28524;DHT22;15734;50.904;6.922;2023-12-07T04:44:30;0.70;99.90
28524;DHT22;15734;50.904;6.922;2023-12-07T04:46:56;0.80;99.90
28524;DHT22;15734;50.904;6.922;2023-12-07T04:49:21;0.90;99.90
28524;DHT22;15734;50.904;6.922;2023-12-07T04:51:47;1.00;99.90
28524;DHT22;15734;50.904;6.922;2023-12-07T04:54:13;1.00;99.90
28524;DHT22;15734;50.904;6.922;2023-12-07T04:56:41;1.10;99.90
28524;DHT22;15734;50.904;6.922;2023-12-07T04:59:07;1.00;99.90
28524;DHT22;15734;50.904;6.922;2023-12-07T05:01:34;1.10;99.90
28524;DHT22;15734;50.904;6.922;2023-12-07T05:04:01;1.20;99.90
28524;DHT22;15734;50.904;6.922;2023-12-07T05:06:27;1.20;99.90
28524;DHT22;15734;50.904;6.922;2023-12-07T05:08:53;1.20;99.90
28524;DHT22;15734;50.904;6.922;2023-12-07T05:11:18;1.20;99.90
28524;DHT22;15734;50.904;6.922;2023-12-07T05:13:43;1.20;99.90
28524;DHT22;15734;50.904;6.922;2023-12-07T05:16:10;1.10;99.90
28524;DHT22;15734;50.904;6.922;2023-12-07T05:18:35;1.10;99.90
28524;DHT22;15734;50.904;6.922;2023-12-07T05:21:01;1.10;99.90
28524;DHT22;15734;50.904;6.922;2023-12-07T05:23:27;1.10;99.90
28524;DHT22;15734;50.904;6.922;2023-12-07T05:25:52;1.10;99.90
28524;DHT22;15734;50.904;6.922;2023-12-07T05:28:19;1.10;99.90
28524;DHT22;15734;50.904;6.922;2023-12-07T05:30:45;1.10;99.90
28524;DHT22;15734;50.904;6.922;2023-12-07T05:33:11;1.10;99.90
28524;DHT22;15734;50.904;6.922;2023-12-07T05:35:37;1.20;99.90
28524;DHT22;15734;50.904;6.922;2023-12-07T05:38:02;1.20;99.90
28524;DHT22;15734;50.904;6.922;2023-12-07T05:40:28;1.20;99.90
28524;DHT22;15734;50.904;6.922;2023-12-07T05:42:53;1.10;99.90
28524;DHT22;15734;50.904;6.922;2023-12-07T05:45:19;1.00;99.90
28524;DHT22;15734;50.904;6.922;2023-12-07T05:47:44;1.00;99.90
28524;DHT22;15734;50.904;6.922;2023-12-07T05:50:10;0.70;99.90
28524;DHT22;15734;50.904;6.922;2023-12-07T05:52:35;0.70;99.90
28524;DHT22;15734;50.904;6.922;2023-12-07T05:55:01;0.80;99.90
28524;DHT22;15734;50.904;6.922;2023-12-07T05:57:27;0.70;99.90
28524;DHT22;15734;50.904;6.922;2023-12-07T05:59:52;0.80;99.90
28524;DHT22;15734;50.904;6.922;2023-12-07T06:02:17;0.80;99.90
28524;DHT22;15734;50.904;6.922;2023-12-07T06:04:43;0.80;99.90
28524;DHT22;15734;50.904;6.922;2023-12-07T06:07:09;0.80;99.90
28524;DHT22;15734;50.904;6.922;2023-12-07T06:09:34;0.80;99.90
28524;DHT22;15734;50.904;6.922;2023-12-07T06:12:00;0.70;99.90
28524;DHT22;15734;50.904;6.922;2023-12-07T06:14:25;0.60;99.90
28524;DHT22;15734;50.904;6.922;2023-12-07T06:16:51;0.60;99.90
28524;DHT22;15734;50.904;6.922;2023-12-07T06:19:16;0.60;99.90
28524;DHT22;15734;50.904;6.922;2023-12-07T06:21:43;0.50;99.90
28524;DHT22;15734;50.904;6.922;2023-12-07T06:24:09;0.50;99.90
28524;DHT22;15734;50.904;6.922;2023-12-07T06:26:35;0.40;99.90
28524;DHT22;15734;50.904;6.922;2023-12-07T06:29:01;0.40;99.90
28524;DHT22;15734;50.904;6.922;2023-12-07T06:31:26;0.50;99.90
28524;DHT22;15734;50.904;6.922;2023-12-07T06:33:52;0.40;99.90
28524;DHT22;15734;50.904;6.922;2023-12-07T06:36:21;0.30;99.90
28524;DHT22;15734;50.904;6.922;2023-12-07T06:38:47;0.30;99.90
28524;DHT22;15734;50.904;6.922;2023-12-07T06:41:14;0.20;99.90
28524;DHT22;15734;50.904;6.922;2023-12-07T06:43:40;0.20;99.90
28524;DHT22;15734;50.904;6.922;2023-12-07T06:46:05;0.20;99.90
28524;DHT22;15734;50.904;6.922;2023-12-07T06:48:31;0.20;99.90
28524;DHT22;15734;50.904;6.922;2023-12-07T06:50:57;0.20;99.90
28524;DHT22;15734;50.904;6.922;2023-12-07T06:53:22;0.30;99.90
28524;DHT22;15734;50.904;6.922;2023-12-07T06:55:48;0.30;99.90
28524;DHT22;15734;50.904;6.922;2023-12-07T06:58:13;0.20;99.90
28524;DHT22;15734;50.904;6.922;2023-12-07T07:00:38;0.20;99.90
28524;DHT22;15734;50.904;6.922;2023-12-07T07:03:04;0.10;99.90
28524;DHT22;15734;50.904;6.922;2023-12-07T07:05:31;0.20;99.90
28524;DHT22;15734;50.904;6.922;2023-12-07T07:07:57;0.20;99.90
28524;DHT22;15734;50.904;6.922;2023-12-07T07:10:22;0.20;99.90
28524;DHT22;15734;50.904;6.922;2023-12-07T07:12:48;0.20;99.90
28524;DHT22;15734;50.904;6.922;2023-12-07T07:15:14;0.20;99.90
28524;DHT22;15734;50.904;6.922;2023-12-07T07:17:39;0.30;99.90
28524;DHT22;15734;50.904;6.922;2023-12-07T07:20:05;0.30;99.90
28524;DHT22;15734;50.904;6.922;2023-12-07T07:22:31;0.40;99.90
28524;DHT22;15734;50.904;6.922;2023-12-07T07:24:56;0.30;99.90
28524;DHT22;15734;50.904;6.922;2023-12-07T07:27:22;0.20;99.90
28524;DHT22;15734;50.904;6.922;2023-12-07T07:29:47;0.20;99.90
28524;DHT22;15734;50.904;6.922;2023-12-07T07:32:13;0.20;99.90
28524;DHT22;15734;50.904;6.922;2023-12-07T07:34:38;0.20;99.90
28524;DHT22;15734;50.904;6.922;2023-12-07T07:37:05;0.20;99.90
28524;DHT22;15734;50.904;6.922;2023-12-07T07:39:32;0.30;99.90
28524;DHT22;15734;50.904;6.922;2023-12-07T07:41:57;0.30;99.90
28524;DHT22;15734;50.904;6.922;2023-12-07T07:44:23;0.30;99.90
28524;DHT22;15734;50.904;6.922;2023-12-07T07:46:48;0.30;99.90
28524;DHT22;15734;50.904;6.922;2023-12-07T07:49:14;0.30;99.90
28524;DHT22;15734;50.904;6.922;2023-12-07T07:51:39;0.30;99.90
28524;DHT22;15734;50.904;6.922;2023-12-07T07:54:05;0.30;99.90
28524;DHT22;15734;50.904;6.922;2023-12-07T07:56:30;0.30;99.90
28524;DHT22;15734;50.904;6.922;2023-12-07T07:58:56;0.20;99.90
28524;DHT22;15734;50.904;6.922;2023-12-07T08:01:25;0.30;99.90
28524;DHT22;15734;50.904;6.922;2023-12-07T08:03:50;0.30;99.90
28524;DHT22;15734;50.904;6.922;2023-12-07T08:06:16;0.30;99.90
28524;DHT22;15734;50.904;6.922;2023-12-07T08:08:41;0.30;99.90
28524;DHT22;15734;50.904;6.922;2023-12-07T08:11:07;0.40;99.90
28524;DHT22;15734;50.904;6.922;2023-12-07T08:13:32;0.40;99.90
28524;DHT22;15734;50.904;6.922;2023-12-07T08:15:58;0.50;99.90
28524;DHT22;15734;50.904;6.922;2023-12-07T08:18:23;0.50;99.90
28524;DHT22;15734;50.904;6.922;2023-12-07T08:20:49;0.60;99.90
28524;DHT22;15734;50.904;6.922;2023-12-07T08:23:14;0.60;99.90
28524;DHT22;15734;50.904;6.922;2023-12-07T08:25:40;0.70;99.90
28524;DHT22;15734;50.904;6.922;2023-12-07T08:28:05;0.70;99.90
28524;DHT22;15734;50.904;6.922;2023-12-07T08:30:31;0.80;99.90
28524;DHT22;15734;50.904;6.922;2023-12-07T08:32:56;0.80;99.90
28524;DHT22;15734;50.904;6.922;2023-12-07T08:35:22;0.90;99.90
28524;DHT22;15734;50.904;6.922;2023-12-07T08:37:48;0.90;99.90
28524;DHT22;15734;50.904;6.922;2023-12-07T08:40:14;1.00;99.90
28524;DHT22;15734;50.904;6.922;2023-12-07T08:42:40;1.00;99.90
28524;DHT22;15734;50.904;6.922;2023-12-07T08:45:06;1.10;99.90
28524;DHT22;15734;50.904;6.922;2023-12-07T08:47:33;1.10;99.90
28524;DHT22;15734;50.904;6.922;2023-12-07T08:49:58;1.20;99.90
28524;DHT22;15734;50.904;6.922;2023-12-07T08:52:24;1.30;99.90
28524;DHT22;15734;50.904;6.922;2023-12-07T08:54:49;1.30;99.90
28524;DHT22;15734;50.904;6.922;2023-12-07T08:57:15;1.40;99.90
28524;DHT22;15734;50.904;6.922;2023-12-07T08:59:42;1.40;99.90
28524;DHT22;15734;50.904;6.922;2023-12-07T09:02:08;1.40;99.90
28524;DHT22;15734;50.904;6.922;2023-12-07T09:04:33;1.50;99.90
28524;DHT22;15734;50.904;6.922;2023-12-07T09:06:59;1.50;99.90
28524;DHT22;15734;50.904;6.922;2023-12-07T09:09:24;1.50;99.90
28524;DHT22;15734;50.904;6.922;2023-12-07T09:11:51;1.60;99.90
28524;DHT22;15734;50.904;6.922;2023-12-07T09:14:16;1.60;99.90
28524;DHT22;15734;50.904;6.922;2023-12-07T09:16:45;1.70;99.90
28524;DHT22;15734;50.904;6.922;2023-12-07T09:19:12;1.80;99.90
28524;DHT22;15734;50.904;6.922;2023-12-07T09:21:39;1.90;99.90
28524;DHT22;15734;50.904;6.922;2023-12-07T09:24:05;1.90;99.90
28524;DHT22;15734;50.904;6.922;2023-12-07T09:26:32;1.90;99.90
28524;DHT22;15734;50.904;6.922;2023-12-07T09:28:57;2.00;99.90
28524;DHT22;15734;50.904;6.922;2023-12-07T09:31:23;2.00;99.90
28524;DHT22;15734;50.904;6.922;2023-12-07T09:33:48;2.00;99.90
28524;DHT22;15734;50.904;6.922;2023-12-07T09:36:17;2.10;99.90
28524;DHT22;15734;50.904;6.922;2023-12-07T09:38:44;2.20;99.90
28524;DHT22;15734;50.904;6.922;2023-12-07T09:41:09;2.30;99.90
28524;DHT22;15734;50.904;6.922;2023-12-07T09:43:35;2.30;99.90
28524;DHT22;15734;50.904;6.922;2023-12-07T09:46:01;2.40;99.90
28524;DHT22;15734;50.904;6.922;2023-12-07T09:48:26;2.40;99.90
28524;DHT22;15734;50.904;6.922;2023-12-07T09:50:53;2.50;99.90
28524;DHT22;15734;50.904;6.922;2023-12-07T09:53:20;2.50;99.90
28524;DHT22;15734;50.904;6.922;2023-12-07T09:55:46;2.50;99.90
28524;DHT22;15734;50.904;6.922;2023-12-07T09:58:12;2.60;99.90
28524;DHT22;15734;50.904;6.922;2023-12-07T10:00:38;2.60;99.90
28524;DHT22;15734;50.904;6.922;2023-12-07T10:03:05;2.70;99.90
28524;DHT22;15734;50.904;6.922;2023-12-07T10:05:34;2.80;99.90
28524;DHT22;15734;50.904;6.922;2023-12-07T10:08:34;2.90;99.90
28524;DHT22;15734;50.904;6.922;2023-12-07T10:11:06;2.90;99.90
28524;DHT22;15734;50.904;6.922;2023-12-07T10:13:36;2.90;99.90
28524;DHT22;15734;50.904;6.922;2023-12-07T10:16:20;2.90;99.90
28524;DHT22;15734;50.904;6.922;2023-12-07T10:18:45;2.90;99.90
28524;DHT22;15734;50.904;6.922;2023-12-07T10:21:11;2.90;99.90
28524;DHT22;15734;50.904;6.922;2023-12-07T10:23:38;3.10;99.90
28524;DHT22;15734;50.904;6.922;2023-12-07T10:26:05;3.20;99.90
28524;DHT22;15734;50.904;6.922;2023-12-07T10:28:31;3.20;99.90
28524;DHT22;15734;50.904;6.922;2023-12-07T10:30:58;3.10;99.90
28524;DHT22;15734;50.904;6.922;2023-12-07T10:33:26;3.10;99.90
28524;DHT22;15734;50.904;6.922;2023-12-07T10:35:51;3.20;99.90
28524;DHT22;15734;50.904;6.922;2023-12-07T10:38:17;3.30;99.90
28524;DHT22;15734;50.904;6.922;2023-12-07T10:40:44;3.50;99.90
28524;DHT22;15734;50.904;6.922;2023-12-07T10:43:12;3.60;99.90
28524;DHT22;15734;50.904;6.922;2023-12-07T10:45:39;3.60;99.90
28524;DHT22;15734;50.904;6.922;2023-12-07T10:48:09;3.70;99.90
28524;DHT22;15734;50.904;6.922;2023-12-07T10:50:46;3.70;99.90
28524;DHT22;15734;50.904;6.922;2023-12-07T10:53:21;3.70;99.90
28524;DHT22;15734;50.904;6.922;2023-12-07T10:55:55;3.80;99.90
28524;DHT22;15734;50.904;6.922;2023-12-07T10:58:23;3.80;99.90
28524;DHT22;15734;50.904;6.922;2023-12-07T11:00:54;3.90;99.90
28524;DHT22;15734;50.904;6.922;2023-12-07T11:03:21;3.90;99.90
28524;DHT22;15734;50.904;6.922;2023-12-07T11:05:47;3.80;99.90
28524;DHT22;15734;50.904;6.922;2023-12-07T11:08:36;3.80;99.90
28524;DHT22;15734;50.904;6.922;2023-12-07T11:14:08;3.90;99.90
28524;DHT22;15734;50.904;6.922;2023-12-07T11:16:41;3.80;99.90
28524;DHT22;15734;50.904;6.922;2023-12-07T11:22:00;3.70;99.90
28524;DHT22;15734;50.904;6.922;2023-12-07T11:24:25;3.70;99.90
28524;DHT22;15734;50.904;6.922;2023-12-07T11:26:57;3.70;99.90
28524;DHT22;15734;50.904;6.922;2023-12-07T11:29:29;3.70;99.90
28524;DHT22;15734;50.904;6.922;2023-12-07T11:32:01;3.70;99.90
28524;DHT22;15734;50.904;6.922;2023-12-07T11:34:40;3.60;99.90
28524;DHT22;15734;50.904;6.922;2023-12-07T11:37:07;3.70;99.90
28524;DHT22;15734;50.904;6.922;2023-12-07T11:39:40;3.90;99.90
28524;DHT22;15734;50.904;6.922;2023-12-07T11:42:18;3.90;99.90
28524;DHT22;15734;50.904;6.922;2023-12-07T11:44:47;4.00;99.90
28524;DHT22;15734;50.904;6.922;2023-12-07T11:47:18;4.10;99.90
28524;DHT22;15734;50.904;6.922;2023-12-07T11:49:45;4.20;99.90
28524;DHT22;15734;50.904;6.922;2023-12-07T11:52:21;4.30;99.90
28524;DHT22;15734;50.904;6.922;2023-12-07T11:54:48;4.40;99.90
28524;DHT22;15734;50.904;6.922;2023-12-07T11:57:14;4.60;99.90
28524;DHT22;15734;50.904;6.922;2023-12-07T11:59:41;4.60;99.90
28524;DHT22;15734;50.904;6.922;2023-12-07T12:02:07;4.80;99.90
28524;DHT22;15734;50.904;6.922;2023-12-07T12:04:32;4.80;99.90
28524;DHT22;15734;50.904;6.922;2023-12-07T12:06:58;4.80;99.90
28524;DHT22;15734;50.904;6.922;2023-12-07T12:09:26;5.00;99.90
28524;DHT22;15734;50.904;6.922;2023-12-07T12:11:52;5.10;99.90
28524;DHT22;15734;50.904;6.922;2023-12-07T12:14:18;5.20;99.90
28524;DHT22;15734;50.904;6.922;2023-12-07T12:16:45;5.40;99.90
28524;DHT22;15734;50.904;6.922;2023-12-07T12:19:11;5.40;99.90
28524;DHT22;15734;50.904;6.922;2023-12-07T12:21:37;5.30;99.90
28524;DHT22;15734;50.904;6.922;2023-12-07T12:24:06;5.60;99.90
28524;DHT22;15734;50.904;6.922;2023-12-07T12:26:36;5.60;99.90
28524;DHT22;15734;50.904;6.922;2023-12-07T12:29:05;5.60;99.90
28524;DHT22;15734;50.904;6.922;2023-12-07T12:31:32;5.60;99.90
28524;DHT22;15734;50.904;6.922;2023-12-07T12:33:57;5.60;99.90
28524;DHT22;15734;50.904;6.922;2023-12-07T12:36:23;5.80;99.90
28524;DHT22;15734;50.904;6.922;2023-12-07T12:38:52;6.10;99.90
28524;DHT22;15734;50.904;6.922;2023-12-07T12:41:24;6.20;99.90
28524;DHT22;15734;50.904;6.922;2023-12-07T12:43:51;6.10;99.90
28524;DHT22;15734;50.904;6.922;2023-12-07T12:46:17;6.10;99.90
28524;DHT22;15734;50.904;6.922;2023-12-07T12:51:19;6.20;99.90
28524;DHT22;15734;50.904;6.922;2023-12-07T12:53:45;6.10;99.90
28524;DHT22;15734;50.904;6.922;2023-12-07T12:56:14;6.30;99.90
28524;DHT22;15734;50.904;6.922;2023-12-07T12:58:40;6.20;99.90
28524;DHT22;15734;50.904;6.922;2023-12-07T13:01:05;6.10;99.90
28524;DHT22;15734;50.904;6.922;2023-12-07T13:03:32;6.20;99.90
28524;DHT22;15734;50.904;6.922;2023-12-07T13:05:58;6.10;99.90
28524;DHT22;15734;50.904;6.922;2023-12-07T13:08:23;6.00;99.90
28524;DHT22;15734;50.904;6.922;2023-12-07T13:10:49;5.90;99.90
28524;DHT22;15734;50.904;6.922;2023-12-07T13:13:15;5.80;99.90
28524;DHT22;15734;50.904;6.922;2023-12-07T13:15:41;5.70;99.90
28524;DHT22;15734;50.904;6.922;2023-12-07T13:18:07;5.60;99.90
28524;DHT22;15734;50.904;6.922;2023-12-07T13:20:33;5.70;99.90
28524;DHT22;15734;50.904;6.922;2023-12-07T13:23:00;5.70;99.90
28524;DHT22;15734;50.904;6.922;2023-12-07T13:25:25;5.50;99.90
28524;DHT22;15734;50.904;6.922;2023-12-07T13:27:51;5.50;99.90
28524;DHT22;15734;50.904;6.922;2023-12-07T13:30:17;5.50;99.90
28524;DHT22;15734;50.904;6.922;2023-12-07T13:32:42;5.50;99.90
28524;DHT22;15734;50.904;6.922;2023-12-07T13:35:08;5.60;99.90
28524;DHT22;15734;50.904;6.922;2023-12-07T13:37:34;5.30;99.90
28524;DHT22;15734;50.904;6.922;2023-12-07T13:39:59;5.20;99.90
28524;DHT22;15734;50.904;6.922;2023-12-07T13:42:27;5.20;99.90
28524;DHT22;15734;50.904;6.922;2023-12-07T13:44:59;5.20;99.90
28524;DHT22;15734;50.904;6.922;2023-12-07T13:47:26;5.30;99.90
28524;DHT22;15734;50.904;6.922;2023-12-07T13:49:57;5.20;99.90
28524;DHT22;15734;50.904;6.922;2023-12-07T13:52:23;5.10;99.90
28524;DHT22;15734;50.904;6.922;2023-12-07T13:54:49;5.10;99.90
28524;DHT22;15734;50.904;6.922;2023-12-07T13:57:15;5.00;99.90
28524;DHT22;15734;50.904;6.922;2023-12-07T13:59:40;4.90;99.90
28524;DHT22;15734;50.904;6.922;2023-12-07T14:02:06;4.70;99.90
28524;DHT22;15734;50.904;6.922;2023-12-07T14:04:33;4.60;99.90
28524;DHT22;15734;50.904;6.922;2023-12-07T14:07:11;4.60;99.90
28524;DHT22;15734;50.904;6.922;2023-12-07T14:09:40;4.60;99.90
28524;DHT22;15734;50.904;6.922;2023-12-07T14:12:06;4.60;99.90
28524;DHT22;15734;50.904;6.922;2023-12-07T14:14:32;4.50;99.90
28524;DHT22;15734;50.904;6.922;2023-12-07T14:16:58;4.50;99.90
28524;DHT22;15734;50.904;6.922;2023-12-07T14:19:23;4.40;99.90
28524;DHT22;15734;50.904;6.922;2023-12-07T14:21:49;4.30;99.90
28524;DHT22;15734;50.904;6.922;2023-12-07T14:24:15;4.20;99.90
28524;DHT22;15734;50.904;6.922;2023-12-07T14:26:43;4.20;99.90
28524;DHT22;15734;50.904;6.922;2023-12-07T14:29:09;4.20;99.90
28524;DHT22;15734;50.904;6.922;2023-12-07T14:31:40;4.20;99.90
28524;DHT22;15734;50.904;6.922;2023-12-07T14:34:06;4.20;99.90
28524;DHT22;15734;50.904;6.922;2023-12-07T14:36:31;4.20;99.90
28524;DHT22;15734;50.904;6.922;2023-12-07T14:38:57;4.20;99.90
28524;DHT22;15734;50.904;6.922;2023-12-07T14:41:23;4.10;99.90
28524;DHT22;15734;50.904;6.922;2023-12-07T14:43:48;4.00;99.90
28524;DHT22;15734;50.904;6.922;2023-12-07T14:46:14;4.00;99.90
28524;DHT22;15734;50.904;6.922;2023-12-07T14:48:39;4.00;99.90
28524;DHT22;15734;50.904;6.922;2023-12-07T14:51:05;3.90;99.90
28524;DHT22;15734;50.904;6.922;2023-12-07T14:53:32;3.90;99.90
28524;DHT22;15734;50.904;6.922;2023-12-07T14:55:59;4.00;99.90
28524;DHT22;15734;50.904;6.922;2023-12-07T14:58:25;3.90;99.90
28524;DHT22;15734;50.904;6.922;2023-12-07T15:00:51;3.80;99.90
28524;DHT22;15734;50.904;6.922;2023-12-07T15:03:16;3.70;99.90
28524;DHT22;15734;50.904;6.922;2023-12-07T15:05:44;3.70;99.90
28524;DHT22;15734;50.904;6.922;2023-12-07T15:08:10;3.70;99.90
28524;DHT22;15734;50.904;6.922;2023-12-07T15:10:37;3.60;99.90
28524;DHT22;15734;50.904;6.922;2023-12-07T15:13:03;3.60;99.90
28524;DHT22;15734;50.904;6.922;2023-12-07T15:15:30;3.50;99.90
28524;DHT22;15734;50.904;6.922;2023-12-07T15:17:55;3.50;99.90
28524;DHT22;15734;50.904;6.922;2023-12-07T15:20:21;3.50;99.90
28524;DHT22;15734;50.904;6.922;2023-12-07T15:22:47;3.40;99.90
28524;DHT22;15734;50.904;6.922;2023-12-07T15:25:12;3.40;99.90
28524;DHT22;15734;50.904;6.922;2023-12-07T15:27:38;3.40;99.90
28524;DHT22;15734;50.904;6.922;2023-12-07T15:30:04;3.30;99.90
28524;DHT22;15734;50.904;6.922;2023-12-07T15:32:33;3.30;99.90
28524;DHT22;15734;50.904;6.922;2023-12-07T15:34:58;3.30;99.90
28524;DHT22;15734;50.904;6.922;2023-12-07T15:37:24;3.20;99.90
28524;DHT22;15734;50.904;6.922;2023-12-07T15:39:50;3.20;99.90
28524;DHT22;15734;50.904;6.922;2023-12-07T15:42:16;3.20;99.90
28524;DHT22;15734;50.904;6.922;2023-12-07T15:44:42;3.20;99.90
28524;DHT22;15734;50.904;6.922;2023-12-07T15:47:07;3.20;99.90
28524;DHT22;15734;50.904;6.922;2023-12-07T15:49:33;3.20;99.90
28524;DHT22;15734;50.904;6.922;2023-12-07T15:51:59;3.20;99.90